sensor_id;sensor_type;location;lat;lon;timestamp;temperature;humidity
59309;DHT22;48433;53.016;-2.260;2023-05-07T00:02:15;13.90;99.90
59309;DHT22;48433;53.016;-2.260;2023-05-07T00:04:43;13.90;99.90
59309;DHT22;48433;53.016;-2.260;2023-05-07T00:07:11;13.90;99.90
59309;DHT22;48433;53.016;-2.260;2023-05-07T00:09:39;13.90;99.90
59309;DHT22;48433;53.016;-2.260;2023-05-07T00:12:07;13.90;99.90
59309;DHT22;48433;53.016;-2.260;2023-05-07T00:14:35;13.90;99.90
59309;DHT22;48433;53.016;-2.260;2023-05-07T00:17:03;13.80;99.90
59309;DHT22;48433;53.016;-2.260;2023-05-07T00:19:30;13.90;99.90
59309;DHT22;48433;53.016;-2.260;2023-05-07T00:21:59;13.90;99.90
59309;DHT22;48433;53.016;-2.260;2023-05-07T00:24:26;13.90;99.90
59309;DHT22;48433;53.016;-2.260;2023-05-07T00:26:54;13.90;99.90
59309;DHT22;48433;53.016;-2.260;2023-05-07T00:29:22;13.90;99.90
59309;DHT22;48433;53.016;-2.260;2023-05-07T00:31:49;13.80;99.90
59309;DHT22;48433;53.016;-2.260;2023-05-07T00:34:19;13.90;99.90
59309;DHT22;48433;53.016;-2.260;2023-05-07T00:36:46;13.80;99.90
59309;DHT22;48433;53.016;-2.260;2023-05-07T00:39:14;13.80;99.90
59309;DHT22;48433;53.016;-2.260;2023-05-07T00:41:42;13.80;99.90
59309;DHT22;48433;53.016;-2.260;2023-05-07T00:44:09;13.90;99.90
59309;DHT22;48433;53.016;-2.260;2023-05-07T00:46:37;13.80;99.90
59309;DHT22;48433;53.016;-2.260;2023-05-07T00:49:05;13.80;99.90
59309;DHT22;48433;53.016;-2.260;2023-05-07T00:51:33;13.80;99.90
59309;DHT22;48433;53.016;-2.260;2023-05-07T00:54:02;13.80;99.90
59309;DHT22;48433;53.016;-2.260;2023-05-07T00:56:31;13.90;99.90
59309;DHT22;48433;53.016;-2.260;2023-05-07T01:01:28;13.80;99.90
59309;DHT22;48433;53.016;-2.260;2023-05-07T01:03:56;13.80;99.90
59309;DHT22;48433;53.016;-2.260;2023-05-07T01:06:25;13.80;99.90
59309;DHT22;48433;53.016;-2.260;2023-05-07T01:08:55;13.80;99.90
59309;DHT22;48433;53.016;-2.260;2023-05-07T01:11:25;13.80;99.90
59309;DHT22;48433;53.016;-2.260;2023-05-07T01:13:53;13.80;99.90
59309;DHT22;48433;53.016;-2.260;2023-05-07T01:16:21;13.80;99.90
59309;DHT22;48433;53.016;-2.260;2023-05-07T01:18:49;13.80;99.90
59309;DHT22;48433;53.016;-2.260;2023-05-07T01:21:17;13.80;99.90
59309;DHT22;48433;53.016;-2.260;2023-05-07T01:23:45;13.80;99.90
59309;DHT22;48433;53.016;-2.260;2023-05-07T01:26:14;13.80;99.90
59309;DHT22;48433;53.016;-2.260;2023-05-07T01:28:45;13.80;99.90
59309;DHT22;48433;53.016;-2.260;2023-05-07T01:31:14;13.70;99.90
59309;DHT22;48433;53.016;-2.260;2023-05-07T01:33:43;13.70;99.90
59309;DHT22;48433;53.016;-2.260;2023-05-07T01:36:12;13.70;99.90
59309;DHT22;48433;53.016;-2.260;2023-05-07T01:38:41;13.70;99.90
59309;DHT22;48433;53.016;-2.260;2023-05-07T01:41:09;13.70;99.90
59309;DHT22;48433;53.016;-2.260;2023-05-07T01:43:37;13.70;99.90
59309;DHT22;48433;53.016;-2.260;2023-05-07T01:46:05;13.70;99.90
59309;DHT22;48433;53.016;-2.260;2023-05-07T01:48:33;13.70;99.90
59309;DHT22;48433;53.016;-2.260;2023-05-07T01:51:02;13.60;99.90
59309;DHT22;48433;53.016;-2.260;2023-05-07T01:53:35;13.60;99.90
59309;DHT22;48433;53.016;-2.260;2023-05-07T01:56:04;13.60;99.90
59309;DHT22;48433;53.016;-2.260;2023-05-07T01:58:33;13.60;99.90
59309;DHT22;48433;53.016;-2.260;2023-05-07T02:01:01;13.60;99.90
59309;DHT22;48433;53.016;-2.260;2023-05-07T02:03:30;13.60;99.90
59309;DHT22;48433;53.016;-2.260;2023-05-07T02:06:06;13.60;99.90
59309;DHT22;48433;53.016;-2.260;2023-05-07T02:08:37;13.60;99.90
59309;DHT22;48433;53.016;-2.260;2023-05-07T02:11:05;13.60;99.90
59309;DHT22;48433;53.016;-2.260;2023-05-07T02:13:34;13.60;99.90
59309;DHT22;48433;53.016;-2.260;2023-05-07T02:16:02;13.60;99.90
59309;DHT22;48433;53.016;-2.260;2023-05-07T02:18:30;13.50;99.90
59309;DHT22;48433;53.016;-2.260;2023-05-07T02:20:58;13.50;99.90
59309;DHT22;48433;53.016;-2.260;2023-05-07T02:23:26;13.50;99.90
59309;DHT22;48433;53.016;-2.260;2023-05-07T02:25:53;13.50;99.90
59309;DHT22;48433;53.016;-2.260;2023-05-07T02:28:21;13.50;99.90
59309;DHT22;48433;53.016;-2.260;2023-05-07T02:30:53;13.50;99.90
59309;DHT22;48433;53.016;-2.260;2023-05-07T02:33:21;13.50;99.90
59309;DHT22;48433;53.016;-2.260;2023-05-07T02:35:49;13.50;99.90
59309;DHT22;48433;53.016;-2.260;2023-05-07T02:38:17;13.50;99.90
59309;DHT22;48433;53.016;-2.260;2023-05-07T02:40:44;13.50;99.90
59309;DHT22;48433;53.016;-2.260;2023-05-07T02:43:12;13.50;99.90
59309;DHT22;48433;53.016;-2.260;2023-05-07T02:45:43;13.50;99.90
59309;DHT22;48433;53.016;-2.260;2023-05-07T02:48:12;13.50;99.90
59309;DHT22;48433;53.016;-2.260;2023-05-07T02:50:39;13.60;99.90
59309;DHT22;48433;53.016;-2.260;2023-05-07T02:53:07;13.50;99.90
59309;DHT22;48433;53.016;-2.260;2023-05-07T02:55:35;13.50;99.90
59309;DHT22;48433;53.016;-2.260;2023-05-07T02:58:03;13.60;99.90
59309;DHT22;48433;53.016;-2.260;2023-05-07T03:00:34;13.50;99.90
59309;DHT22;48433;53.016;-2.260;2023-05-07T03:03:28;13.50;99.90
59309;DHT22;48433;53.016;-2.260;2023-05-07T03:05:56;13.50;99.90
59309;DHT22;48433;53.016;-2.260;2023-05-07T03:08:24;13.50;99.90
59309;DHT22;48433;53.016;-2.260;2023-05-07T03:10:52;13.40;99.90
59309;DHT22;48433;53.016;-2.260;2023-05-07T03:13:19;13.40;99.90
59309;DHT22;48433;53.016;-2.260;2023-05-07T03:15:48;13.30;99.90
59309;DHT22;48433;53.016;-2.260;2023-05-07T03:18:16;13.30;99.90
59309;DHT22;48433;53.016;-2.260;2023-05-07T03:20:43;13.30;99.90
59309;DHT22;48433;53.016;-2.260;2023-05-07T03:23:11;13.30;99.90
59309;DHT22;48433;53.016;-2.260;2023-05-07T03:25:39;13.20;99.90
59309;DHT22;48433;53.016;-2.260;2023-05-07T03:28:06;13.20;99.90
59309;DHT22;48433;53.016;-2.260;2023-05-07T03:30:43;13.10;99.90
59309;DHT22;48433;53.016;-2.260;2023-05-07T03:33:11;13.10;99.90
59309;DHT22;48433;53.016;-2.260;2023-05-07T03:35:39;13.00;99.90
59309;DHT22;48433;53.016;-2.260;2023-05-07T03:38:07;13.00;99.90
59309;DHT22;48433;53.016;-2.260;2023-05-07T03:40:36;13.00;99.90
59309;DHT22;48433;53.016;-2.260;2023-05-07T03:43:05;12.80;99.90
59309;DHT22;48433;53.016;-2.260;2023-05-07T03:45:35;12.80;99.90
59309;DHT22;48433;53.016;-2.260;2023-05-07T03:48:14;12.80;99.90
59309;DHT22;48433;53.016;-2.260;2023-05-07T03:50:43;12.80;99.90
59309;DHT22;48433;53.016;-2.260;2023-05-07T03:53:10;12.80;99.90
59309;DHT22;48433;53.016;-2.260;2023-05-07T03:55:39;12.70;99.90
59309;DHT22;48433;53.016;-2.260;2023-05-07T03:58:07;12.70;99.90
59309;DHT22;48433;53.016;-2.260;2023-05-07T04:00:34;12.60;99.90
59309;DHT22;48433;53.016;-2.260;2023-05-07T04:03:15;12.60;99.90
59309;DHT22;48433;53.016;-2.260;2023-05-07T04:05:43;12.60;99.90
59309;DHT22;48433;53.016;-2.260;2023-05-07T04:08:10;12.60;99.90
59309;DHT22;48433;53.016;-2.260;2023-05-07T04:10:41;12.60;99.90
59309;DHT22;48433;53.016;-2.260;2023-05-07T04:13:10;12.60;99.90
59309;DHT22;48433;53.016;-2.260;2023-05-07T04:15:38;12.60;99.90
59309;DHT22;48433;53.016;-2.260;2023-05-07T04:18:11;12.60;99.90
59309;DHT22;48433;53.016;-2.260;2023-05-07T04:20:41;12.50;99.90
59309;DHT22;48433;53.016;-2.260;2023-05-07T04:23:12;12.50;99.90
59309;DHT22;48433;53.016;-2.260;2023-05-07T04:25:41;12.50;99.90
59309;DHT22;48433;53.016;-2.260;2023-05-07T04:28:20;12.50;99.90
59309;DHT22;48433;53.016;-2.260;2023-05-07T04:30:49;12.50;99.90
59309;DHT22;48433;53.016;-2.260;2023-05-07T04:33:17;12.50;99.90
59309;DHT22;48433;53.016;-2.260;2023-05-07T04:35:45;12.50;99.90
59309;DHT22;48433;53.016;-2.260;2023-05-07T04:38:14;12.50;99.90
59309;DHT22;48433;53.016;-2.260;2023-05-07T04:40:42;12.40;99.90
59309;DHT22;48433;53.016;-2.260;2023-05-07T04:43:13;12.50;99.90
59309;DHT22;48433;53.016;-2.260;2023-05-07T04:45:46;12.50;99.90
59309;DHT22;48433;53.016;-2.260;2023-05-07T04:48:14;12.50;99.90
59309;DHT22;48433;53.016;-2.260;2023-05-07T04:50:43;12.50;99.90
59309;DHT22;48433;53.016;-2.260;2023-05-07T04:53:11;12.50;99.90
59309;DHT22;48433;53.016;-2.260;2023-05-07T04:55:39;12.50;99.90
59309;DHT22;48433;53.016;-2.260;2023-05-07T04:58:07;12.60;99.90
59309;DHT22;48433;53.016;-2.260;2023-05-07T05:00:37;12.60;99.90
59309;DHT22;48433;53.016;-2.260;2023-05-07T05:03:06;12.60;99.90
59309;DHT22;48433;53.016;-2.260;2023-05-07T05:05:36;12.60;99.90
59309;DHT22;48433;53.016;-2.260;2023-05-07T05:08:04;12.60;99.90
59309;DHT22;48433;53.016;-2.260;2023-05-07T05:10:32;12.60;99.90
59309;DHT22;48433;53.016;-2.260;2023-05-07T05:12:59;12.60;99.90
59309;DHT22;48433;53.016;-2.260;2023-05-07T05:15:28;12.60;99.90
59309;DHT22;48433;53.016;-2.260;2023-05-07T05:17:55;12.60;99.90
59309;DHT22;48433;53.016;-2.260;2023-05-07T05:20:23;12.70;99.90
59309;DHT22;48433;53.016;-2.260;2023-05-07T05:22:50;12.70;99.90
59309;DHT22;48433;53.016;-2.260;2023-05-07T05:25:19;12.70;99.90
59309;DHT22;48433;53.016;-2.260;2023-05-07T05:27:46;12.80;99.90
59309;DHT22;48433;53.016;-2.260;2023-05-07T05:30:14;12.80;99.90
59309;DHT22;48433;53.016;-2.260;2023-05-07T05:32:45;12.80;99.90
59309;DHT22;48433;53.016;-2.260;2023-05-07T05:35:13;12.80;99.90
59309;DHT22;48433;53.016;-2.260;2023-05-07T05:37:42;12.90;99.90
59309;DHT22;48433;53.016;-2.260;2023-05-07T05:40:10;12.90;99.90
59309;DHT22;48433;53.016;-2.260;2023-05-07T05:42:38;12.90;99.90
59309;DHT22;48433;53.016;-2.260;2023-05-07T05:45:08;12.90;99.90
59309;DHT22;48433;53.016;-2.260;2023-05-07T05:47:36;13.00;99.90
59309;DHT22;48433;53.016;-2.260;2023-05-07T05:50:06;13.00;99.90
59309;DHT22;48433;53.016;-2.260;2023-05-07T05:52:34;13.00;99.90
59309;DHT22;48433;53.016;-2.260;2023-05-07T05:55:02;13.10;99.90
59309;DHT22;48433;53.016;-2.260;2023-05-07T05:57:30;13.20;99.90
59309;DHT22;48433;53.016;-2.260;2023-05-07T05:59:58;13.30;99.90
59309;DHT22;48433;53.016;-2.260;2023-05-07T06:02:26;13.30;99.90
59309;DHT22;48433;53.016;-2.260;2023-05-07T06:04:53;13.30;99.90
59309;DHT22;48433;53.016;-2.260;2023-05-07T06:07:23;13.40;99.90
59309;DHT22;48433;53.016;-2.260;2023-05-07T06:09:50;13.40;99.90
59309;DHT22;48433;53.016;-2.260;2023-05-07T06:12:18;13.40;99.90
59309;DHT22;48433;53.016;-2.260;2023-05-07T06:14:46;13.50;99.90
59309;DHT22;48433;53.016;-2.260;2023-05-07T06:17:14;13.50;99.90
59309;DHT22;48433;53.016;-2.260;2023-05-07T06:19:43;13.60;99.90
59309;DHT22;48433;53.016;-2.260;2023-05-07T06:22:12;13.60;99.90
59309;DHT22;48433;53.016;-2.260;2023-05-07T06:24:40;13.60;99.90
59309;DHT22;48433;53.016;-2.260;2023-05-07T06:27:08;13.60;99.90
59309;DHT22;48433;53.016;-2.260;2023-05-07T06:29:37;13.60;99.90
59309;DHT22;48433;53.016;-2.260;2023-05-07T06:32:13;13.50;99.90
59309;DHT22;48433;53.016;-2.260;2023-05-07T06:34:43;13.50;99.90
59309;DHT22;48433;53.016;-2.260;2023-05-07T06:37:11;13.40;99.90
59309;DHT22;48433;53.016;-2.260;2023-05-07T06:39:53;13.30;99.90
59309;DHT22;48433;53.016;-2.260;2023-05-07T06:42:22;13.30;99.90
59309;DHT22;48433;53.016;-2.260;2023-05-07T06:44:50;13.30;99.90
59309;DHT22;48433;53.016;-2.260;2023-05-07T06:47:18;13.30;99.90
59309;DHT22;48433;53.016;-2.260;2023-05-07T06:49:50;13.30;99.90
59309;DHT22;48433;53.016;-2.260;2023-05-07T06:52:21;13.30;99.90
59309;DHT22;48433;53.016;-2.260;2023-05-07T06:54:50;13.30;99.90
59309;DHT22;48433;53.016;-2.260;2023-05-07T06:57:21;13.40;99.90
59309;DHT22;48433;53.016;-2.260;2023-05-07T06:59:48;13.50;99.90
59309;DHT22;48433;53.016;-2.260;2023-05-07T07:02:16;13.40;99.90
59309;DHT22;48433;53.016;-2.260;2023-05-07T07:04:46;13.50;99.90
59309;DHT22;48433;53.016;-2.260;2023-05-07T07:07:14;13.60;99.90
59309;DHT22;48433;53.016;-2.260;2023-05-07T07:09:45;13.60;99.90
59309;DHT22;48433;53.016;-2.260;2023-05-07T07:12:15;13.60;99.90
59309;DHT22;48433;53.016;-2.260;2023-05-07T07:14:43;13.70;99.90
59309;DHT22;48433;53.016;-2.260;2023-05-07T07:17:12;13.70;99.90
59309;DHT22;48433;53.016;-2.260;2023-05-07T07:19:40;13.70;99.90
59309;DHT22;48433;53.016;-2.260;2023-05-07T07:22:08;13.70;99.90
59309;DHT22;48433;53.016;-2.260;2023-05-07T07:24:37;13.70;99.90
59309;DHT22;48433;53.016;-2.260;2023-05-07T07:27:08;13.80;99.90
59309;DHT22;48433;53.016;-2.260;2023-05-07T07:29:36;13.80;99.90
59309;DHT22;48433;53.016;-2.260;2023-05-07T07:32:04;13.80;99.90
59309;DHT22;48433;53.016;-2.260;2023-05-07T07:34:32;13.90;99.90
59309;DHT22;48433;53.016;-2.260;2023-05-07T07:37:01;14.00;99.90
59309;DHT22;48433;53.016;-2.260;2023-05-07T07:39:34;14.30;99.90
59309;DHT22;48433;53.016;-2.260;2023-05-07T07:42:02;14.30;99.90
59309;DHT22;48433;53.016;-2.260;2023-05-07T07:44:31;14.50;99.90
59309;DHT22;48433;53.016;-2.260;2023-05-07T07:47:04;14.80;99.90
59309;DHT22;48433;53.016;-2.260;2023-05-07T07:49:32;15.10;99.90
59309;DHT22;48433;53.016;-2.260;2023-05-07T07:52:04;15.10;99.90
59309;DHT22;48433;53.016;-2.260;2023-05-07T07:54:34;15.20;99.90
59309;DHT22;48433;53.016;-2.260;2023-05-07T07:57:02;15.40;99.90
59309;DHT22;48433;53.016;-2.260;2023-05-07T07:59:32;15.80;99.90
59309;DHT22;48433;53.016;-2.260;2023-05-07T08:02:00;15.80;99.90
59309;DHT22;48433;53.016;-2.260;2023-05-07T08:07:03;16.40;99.90
59309;DHT22;48433;53.016;-2.260;2023-05-07T08:09:34;16.50;99.90
59309;DHT22;48433;53.016;-2.260;2023-05-07T08:12:07;16.40;99.90
59309;DHT22;48433;53.016;-2.260;2023-05-07T08:14:35;16.30;99.90
59309;DHT22;48433;53.016;-2.260;2023-05-07T08:17:06;16.20;99.90
59309;DHT22;48433;53.016;-2.260;2023-05-07T08:19:35;16.20;99.90
59309;DHT22;48433;53.016;-2.260;2023-05-07T08:22:04;16.20;99.90
59309;DHT22;48433;53.016;-2.260;2023-05-07T08:24:34;16.40;99.90
59309;DHT22;48433;53.016;-2.260;2023-05-07T08:27:02;16.40;99.90
59309;DHT22;48433;53.016;-2.260;2023-05-07T08:29:30;16.50;99.90
59309;DHT22;48433;53.016;-2.260;2023-05-07T08:31:57;16.40;99.90
59309;DHT22;48433;53.016;-2.260;2023-05-07T08:34:25;16.40;99.90
59309;DHT22;48433;53.016;-2.260;2023-05-07T08:36:54;16.40;99.90
59309;DHT22;48433;53.016;-2.260;2023-05-07T08:39:24;16.40;99.90
59309;DHT22;48433;53.016;-2.260;2023-05-07T08:41:55;16.60;99.90
59309;DHT22;48433;53.016;-2.260;2023-05-07T08:44:27;16.90;99.90
59309;DHT22;48433;53.016;-2.260;2023-05-07T08:46:56;17.10;99.90
59309;DHT22;48433;53.016;-2.260;2023-05-07T08:49:27;17.20;99.90
59309;DHT22;48433;53.016;-2.260;2023-05-07T08:51:56;17.20;99.90
59309;DHT22;48433;53.016;-2.260;2023-05-07T08:54:25;17.00;99.90
59309;DHT22;48433;53.016;-2.260;2023-05-07T08:56:53;17.00;99.90
59309;DHT22;48433;53.016;-2.260;2023-05-07T08:59:21;17.10;99.90
59309;DHT22;48433;53.016;-2.260;2023-05-07T09:01:49;17.20;99.90
59309;DHT22;48433;53.016;-2.260;2023-05-07T09:04:17;17.20;99.90
59309;DHT22;48433;53.016;-2.260;2023-05-07T09:06:45;17.30;99.90
59309;DHT22;48433;53.016;-2.260;2023-05-07T09:09:16;17.50;99.90
59309;DHT22;48433;53.016;-2.260;2023-05-07T09:11:46;17.80;99.90
59309;DHT22;48433;53.016;-2.260;2023-05-07T09:14:16;17.80;99.90
59309;DHT22;48433;53.016;-2.260;2023-05-07T09:16:46;18.10;99.90
59309;DHT22;48433;53.016;-2.260;2023-05-07T09:19:14;18.60;99.90
59309;DHT22;48433;53.016;-2.260;2023-05-07T09:21:46;18.60;99.90
59309;DHT22;48433;53.016;-2.260;2023-05-07T09:24:16;18.70;99.90
59309;DHT22;48433;53.016;-2.260;2023-05-07T09:26:44;18.70;99.90
59309;DHT22;48433;53.016;-2.260;2023-05-07T09:29:15;18.40;99.90
59309;DHT22;48433;53.016;-2.260;2023-05-07T09:31:44;18.30;99.90
59309;DHT22;48433;53.016;-2.260;2023-05-07T09:34:16;18.60;99.90
59309;DHT22;48433;53.016;-2.260;2023-05-07T09:36:45;19.30;99.90
59309;DHT22;48433;53.016;-2.260;2023-05-07T09:39:14;19.30;99.90
59309;DHT22;48433;53.016;-2.260;2023-05-07T09:41:46;19.40;99.90
59309;DHT22;48433;53.016;-2.260;2023-05-07T09:44:21;19.40;99.90
59309;DHT22;48433;53.016;-2.260;2023-05-07T09:46:54;19.40;99.90
59309;DHT22;48433;53.016;-2.260;2023-05-07T09:49:35;19.40;99.90
59309;DHT22;48433;53.016;-2.260;2023-05-07T09:52:07;19.40;99.90
59309;DHT22;48433;53.016;-2.260;2023-05-07T09:54:43;19.10;99.90
59309;DHT22;48433;53.016;-2.260;2023-05-07T09:57:14;19.00;99.90
59309;DHT22;48433;53.016;-2.260;2023-05-07T09:59:46;18.50;99.90
59309;DHT22;48433;53.016;-2.260;2023-05-07T10:02:18;18.40;99.90
59309;DHT22;48433;53.016;-2.260;2023-05-07T10:04:50;18.40;99.90
59309;DHT22;48433;53.016;-2.260;2023-05-07T10:07:23;18.60;99.90
59309;DHT22;48433;53.016;-2.260;2023-05-07T10:09:57;18.80;99.90
59309;DHT22;48433;53.016;-2.260;2023-05-07T10:12:32;19.10;99.90
59309;DHT22;48433;53.016;-2.260;2023-05-07T10:15:10;19.20;99.90
59309;DHT22;48433;53.016;-2.260;2023-05-07T10:17:41;19.50;99.90
59309;DHT22;48433;53.016;-2.260;2023-05-07T10:20:11;19.90;99.90
59309;DHT22;48433;53.016;-2.260;2023-05-07T10:22:43;19.90;99.90
59309;DHT22;48433;53.016;-2.260;2023-05-07T10:25:18;19.80;99.90
59309;DHT22;48433;53.016;-2.260;2023-05-07T10:27:49;19.80;99.90
59309;DHT22;48433;53.016;-2.260;2023-05-07T10:33:26;19.40;99.90
59309;DHT22;48433;53.016;-2.260;2023-05-07T10:35:58;19.10;99.90
59309;DHT22;48433;53.016;-2.260;2023-05-07T10:38:29;19.20;99.90
59309;DHT22;48433;53.016;-2.260;2023-05-07T10:40:59;19.40;99.90
59309;DHT22;48433;53.016;-2.260;2023-05-07T10:43:44;19.60;99.90
59309;DHT22;48433;53.016;-2.260;2023-05-07T10:46:20;19.50;99.90
59309;DHT22;48433;53.016;-2.260;2023-05-07T10:54:46;19.40;99.90
59309;DHT22;48433;53.016;-2.260;2023-05-07T11:00:03;19.40;99.90
59309;DHT22;48433;53.016;-2.260;2023-05-07T11:05:30;19.50;99.90
59309;DHT22;48433;53.016;-2.260;2023-05-07T11:08:21;19.60;99.90
59309;DHT22;48433;53.016;-2.260;2023-05-07T11:10:59;19.80;99.90
59309;DHT22;48433;53.016;-2.260;2023-05-07T11:13:44;19.90;99.90
59309;DHT22;48433;53.016;-2.260;2023-05-07T11:16:35;20.00;99.90
59309;DHT22;48433;53.016;-2.260;2023-05-07T11:19:16;20.00;99.90
59309;DHT22;48433;53.016;-2.260;2023-05-07T11:21:48;20.00;99.90
59309;DHT22;48433;53.016;-2.260;2023-05-07T11:24:40;20.20;99.90
59309;DHT22;48433;53.016;-2.260;2023-05-07T11:27:11;20.60;99.90
59309;DHT22;48433;53.016;-2.260;2023-05-07T11:29:39;21.30;99.90
59309;DHT22;48433;53.016;-2.260;2023-05-07T11:32:14;21.30;99.90
59309;DHT22;48433;53.016;-2.260;2023-05-07T11:34:53;20.90;99.90
59309;DHT22;48433;53.016;-2.260;2023-05-07T11:37:22;20.90;99.90
59309;DHT22;48433;53.016;-2.260;2023-05-07T11:40:06;21.40;99.90
59309;DHT22;48433;53.016;-2.260;2023-05-07T11:42:36;21.60;99.90
59309;DHT22;48433;53.016;-2.260;2023-05-07T11:45:06;22.20;99.90
59309;DHT22;48433;53.016;-2.260;2023-05-07T11:47:34;22.30;99.90
59309;DHT22;48433;53.016;-2.260;2023-05-07T11:50:04;22.00;99.90
59309;DHT22;48433;53.016;-2.260;2023-05-07T11:52:34;22.00;99.90
59309;DHT22;48433;53.016;-2.260;2023-05-07T11:55:02;21.80;99.90
59309;DHT22;48433;53.016;-2.260;2023-05-07T11:57:33;21.60;99.90
59309;DHT22;48433;53.016;-2.260;2023-05-07T12:00:02;21.80;99.90
59309;DHT22;48433;53.016;-2.260;2023-05-07T12:02:38;22.00;99.90
59309;DHT22;48433;53.016;-2.260;2023-05-07T12:05:07;22.90;99.90
59309;DHT22;48433;53.016;-2.260;2023-05-07T12:07:34;23.70;99.90
59309;DHT22;48433;53.016;-2.260;2023-05-07T12:10:06;24.30;98.90
59309;DHT22;48433;53.016;-2.260;2023-05-07T12:12:41;24.70;98.20
59309;DHT22;48433;53.016;-2.260;2023-05-07T12:15:22;24.80;98.80
59309;DHT22;48433;53.016;-2.260;2023-05-07T12:17:50;25.60;98.40
59309;DHT22;48433;53.016;-2.260;2023-05-07T12:20:18;26.40;93.00
59309;DHT22;48433;53.016;-2.260;2023-05-07T12:22:47;26.50;94.00
59309;DHT22;48433;53.016;-2.260;2023-05-07T12:25:18;26.90;93.00
59309;DHT22;48433;53.016;-2.260;2023-05-07T12:27:51;27.40;91.00
59309;DHT22;48433;53.016;-2.260;2023-05-07T12:30:19;28.00;85.70
59309;DHT22;48433;53.016;-2.260;2023-05-07T12:32:47;28.00;86.40
59309;DHT22;48433;53.016;-2.260;2023-05-07T12:35:36;27.80;83.50
59309;DHT22;48433;53.016;-2.260;2023-05-07T12:38:08;28.00;80.50
59309;DHT22;48433;53.016;-2.260;2023-05-07T12:40:37;28.50;70.60
59309;DHT22;48433;53.016;-2.260;2023-05-07T12:43:05;28.50;72.90
59309;DHT22;48433;53.016;-2.260;2023-05-07T12:45:42;28.70;73.50
59309;DHT22;48433;53.016;-2.260;2023-05-07T12:48:10;28.80;70.00
59309;DHT22;48433;53.016;-2.260;2023-05-07T12:50:38;28.50;67.90
59309;DHT22;48433;53.016;-2.260;2023-05-07T12:53:07;28.50;69.20
59309;DHT22;48433;53.016;-2.260;2023-05-07T12:55:48;28.30;67.00
59309;DHT22;48433;53.016;-2.260;2023-05-07T12:58:21;28.10;66.20
59309;DHT22;48433;53.016;-2.260;2023-05-07T13:00:49;27.60;67.60
59309;DHT22;48433;53.016;-2.260;2023-05-07T13:03:35;27.50;69.40
59309;DHT22;48433;53.016;-2.260;2023-05-07T13:06:10;27.40;70.00
59309;DHT22;48433;53.016;-2.260;2023-05-07T13:08:41;27.60;69.60
59309;DHT22;48433;53.016;-2.260;2023-05-07T13:11:11;28.20;67.20
59309;DHT22;48433;53.016;-2.260;2023-05-07T13:13:40;28.30;68.50
59309;DHT22;48433;53.016;-2.260;2023-05-07T13:16:09;28.00;66.50
59309;DHT22;48433;53.016;-2.260;2023-05-07T13:18:38;27.40;66.40
59309;DHT22;48433;53.016;-2.260;2023-05-07T13:21:07;26.60;67.90
59309;DHT22;48433;53.016;-2.260;2023-05-07T13:23:34;26.30;69.00
59309;DHT22;48433;53.016;-2.260;2023-05-07T13:26:02;26.00;69.40
59309;DHT22;48433;53.016;-2.260;2023-05-07T13:28:37;25.50;70.10
59309;DHT22;48433;53.016;-2.260;2023-05-07T13:31:05;25.00;71.40
59309;DHT22;48433;53.016;-2.260;2023-05-07T13:33:33;24.90;72.60
59309;DHT22;48433;53.016;-2.260;2023-05-07T13:36:00;24.90;72.70
59309;DHT22;48433;53.016;-2.260;2023-05-07T13:38:29;24.80;72.30
59309;DHT22;48433;53.016;-2.260;2023-05-07T13:40:58;24.20;73.00
59309;DHT22;48433;53.016;-2.260;2023-05-07T13:43:25;24.00;74.40
59309;DHT22;48433;53.016;-2.260;2023-05-07T13:45:53;24.10;75.10
59309;DHT22;48433;53.016;-2.260;2023-05-07T13:48:20;24.80;75.40
59309;DHT22;48433;53.016;-2.260;2023-05-07T13:50:48;25.90;72.90
59309;DHT22;48433;53.016;-2.260;2023-05-07T13:53:16;26.40;74.10
59309;DHT22;48433;53.016;-2.260;2023-05-07T13:55:45;27.40;71.40
59309;DHT22;48433;53.016;-2.260;2023-05-07T13:58:14;28.00;66.40
59309;DHT22;48433;53.016;-2.260;2023-05-07T14:00:41;28.50;64.00
59309;DHT22;48433;53.016;-2.260;2023-05-07T14:03:09;28.70;65.10
59309;DHT22;48433;53.016;-2.260;2023-05-07T14:05:37;28.80;62.70
59309;DHT22;48433;53.016;-2.260;2023-05-07T14:08:05;28.40;60.90
59309;DHT22;48433;53.016;-2.260;2023-05-07T14:10:33;27.10;61.10
59309;DHT22;48433;53.016;-2.260;2023-05-07T14:13:02;26.80;62.70
59309;DHT22;48433;53.016;-2.260;2023-05-07T14:15:29;26.30;63.90
59309;DHT22;48433;53.016;-2.260;2023-05-07T14:17:57;26.00;65.10
59309;DHT22;48433;53.016;-2.260;2023-05-07T14:20:26;26.40;65.80
59309;DHT22;48433;53.016;-2.260;2023-05-07T14:22:54;26.60;66.00
59309;DHT22;48433;53.016;-2.260;2023-05-07T14:25:24;27.00;64.50
59309;DHT22;48433;53.016;-2.260;2023-05-07T14:27:52;27.40;64.30
59309;DHT22;48433;53.016;-2.260;2023-05-07T14:30:19;28.40;61.80
59309;DHT22;48433;53.016;-2.260;2023-05-07T14:32:47;28.50;61.40
59309;DHT22;48433;53.016;-2.260;2023-05-07T14:35:14;28.70;59.10
59309;DHT22;48433;53.016;-2.260;2023-05-07T14:37:43;28.80;59.40
59309;DHT22;48433;53.016;-2.260;2023-05-07T14:40:11;29.10;58.20
59309;DHT22;48433;53.016;-2.260;2023-05-07T14:42:40;29.20;59.00
59309;DHT22;48433;53.016;-2.260;2023-05-07T14:45:08;29.50;57.90
59309;DHT22;48433;53.016;-2.260;2023-05-07T14:47:36;29.70;57.00
59309;DHT22;48433;53.016;-2.260;2023-05-07T14:50:04;30.10;55.70
59309;DHT22;48433;53.016;-2.260;2023-05-07T14:52:32;30.10;56.90
59309;DHT22;48433;53.016;-2.260;2023-05-07T14:54:59;30.00;55.80
59309;DHT22;48433;53.016;-2.260;2023-05-07T14:57:27;29.40;55.50
59309;DHT22;48433;53.016;-2.260;2023-05-07T14:59:59;28.10;55.90
59309;DHT22;48433;53.016;-2.260;2023-05-07T15:02:27;28.10;56.70
59309;DHT22;48433;53.016;-2.260;2023-05-07T15:04:54;27.60;57.70
59309;DHT22;48433;53.016;-2.260;2023-05-07T15:07:22;27.50;58.70
59309;DHT22;48433;53.016;-2.260;2023-05-07T15:09:49;28.10;58.40
59309;DHT22;48433;53.016;-2.260;2023-05-07T15:12:18;28.10;58.80
59309;DHT22;48433;53.016;-2.260;2023-05-07T15:14:45;28.10;58.30
59309;DHT22;48433;53.016;-2.260;2023-05-07T15:17:13;28.10;58.10
59309;DHT22;48433;53.016;-2.260;2023-05-07T15:19:42;28.20;56.90
59309;DHT22;48433;53.016;-2.260;2023-05-07T15:22:09;28.10;57.30
59309;DHT22;48433;53.016;-2.260;2023-05-07T15:24:37;28.40;56.60
59309;DHT22;48433;53.016;-2.260;2023-05-07T15:27:05;28.50;55.80
59309;DHT22;48433;53.016;-2.260;2023-05-07T15:29:32;28.60;55.80
59309;DHT22;48433;53.016;-2.260;2023-05-07T15:32:01;28.60;54.90
59309;DHT22;48433;53.016;-2.260;2023-05-07T15:34:28;28.60;54.90
59309;DHT22;48433;53.016;-2.260;2023-05-07T15:36:57;28.60;54.80
59309;DHT22;48433;53.016;-2.260;2023-05-07T15:39:25;28.60;55.10
59309;DHT22;48433;53.016;-2.260;2023-05-07T15:41:52;28.60;55.50
59309;DHT22;48433;53.016;-2.260;2023-05-07T15:44:20;28.70;55.80
59309;DHT22;48433;53.016;-2.260;2023-05-07T15:46:48;29.00;55.30
59309;DHT22;48433;53.016;-2.260;2023-05-07T15:49:15;28.60;53.50
59309;DHT22;48433;53.016;-2.260;2023-05-07T15:51:43;28.50;53.20